Weather History for Mineral Point, WI

Change the Weather History Date:

Monday, March 18, 2013

  Actual Average (KLNR) Record (KLNR)
Temperature  
Mean Temperature 26 °F -  
Max Temperature 33 °F 42 °F 81 °F (2012)
Min Temperature 17 °F 24 °F 16 °F (2001)
Degree Days  
Heating Degree Days 39    
Moisture  
Dew Point 22 °F    
Average Humidity 81    
Maximum Humidity 93    
Minimum Humidity 68    
Precipitation  
Precipitation 0.03 in - - ()
Sea Level Pressure  
Sea Level Pressure 29.71 in    
Wind  
Wind Speed 12 mph (South)    
Max Wind Speed 28 mph    
Max Gust Speed 38 mph    
Visibility 6 miles    
Events Snow    
Averages and records for this station are not official NWS values.
T = Trace of Precipitation, MM = Missing Value Source: NWS Daily Summary

Daily Weather History Graph

Daily Weather History Graph

Search for Another Location

Airport:

Trip Planner

Search our weather history database for the weather conditions in past years. The results will help you decide how hot, cold, wet, or windy it might be!

Date:

Astronomy

Mar. 18, 2013 Rise Set
Actual Time 7:07 AM CDT 7:11 PM CDT
Civil Twilight 6:39 AM CDT 7:39 PM CDT
Nautical Twilight 6:06 AM CDT 8:12 PM CDT
Astronomical Twilight 5:32 AM CDT 8:46 PM CDT
Moon 10:58 AM CDT (3/18) 1:18 AM CDT (3/18)
Length of Visible Light 13h 00m
Length of Day
12h 03m
Waxing Crescent, 41% of the Moon is Illuminated
Mar 18
Waxing Crescent
Mar 19
First Quarter
Mar 27
Full
Apr 2
Last Quarter
Apr 10
New

Hourly Weather History & Observations

Time (CDT) Temp. Windchill Dew Point Humidity Pressure Visibility Wind Dir Wind Speed Gust Speed Precip Events Conditions
12:15 AM 26.6 °F 17.5 °F 21.2 °F 80% 29.94 in 10.0 mi ESE 9.2 mph - N/A   Clear
12:35 AM 26.6 °F 18.2 °F 21.2 °F 80% 29.92 in 10.0 mi East 8.1 mph - N/A   Clear
12:55 AM 26.6 °F 18.2 °F 21.2 °F 80% 29.91 in 10.0 mi East 8.1 mph - N/A   Clear
1:15 AM 26.6 °F 17.5 °F 21.2 °F 80% 29.89 in 10.0 mi East 9.2 mph - N/A   Clear
1:35 AM 26.6 °F 16.2 °F 21.2 °F 80% 29.87 in 10.0 mi East 11.5 mph - N/A   Clear
1:55 AM 26.6 °F 19.1 °F 21.2 °F 80% 29.88 in 10.0 mi East 6.9 mph - N/A   Clear
2:15 AM 26.6 °F 16.8 °F 21.2 °F 80% 29.86 in 10.0 mi East 10.4 mph - N/A   Clear
2:35 AM 26.6 °F 17.5 °F 21.2 °F 80% 29.86 in 10.0 mi East 9.2 mph - N/A   Clear
2:55 AM 26.6 °F 17.5 °F 21.2 °F 80% 29.85 in 10.0 mi East 9.2 mph - N/A   Clear
3:15 AM 26.6 °F 17.5 °F 21.2 °F 80% 29.84 in 10.0 mi East 9.2 mph - N/A   Mostly Cloudy
3:35 AM 26.6 °F 18.2 °F 23.0 °F 86% 29.83 in 10.0 mi East 8.1 mph - N/A   Overcast
3:55 AM 28.4 °F 21.2 °F 23.0 °F 80% 29.82 in 10.0 mi East 6.9 mph - N/A   Overcast
4:15 AM 28.4 °F 20.4 °F 23.0 °F 80% 29.80 in 10.0 mi East 8.1 mph - N/A   Overcast
4:35 AM 28.4 °F 19.7 °F 23.0 °F 80% 29.79 in 10.0 mi East 9.2 mph - N/A   Overcast
4:55 AM 28.4 °F 20.4 °F 23.0 °F 80% 29.79 in 10.0 mi ESE 8.1 mph - N/A   Overcast
5:15 AM 28.4 °F 19.7 °F 23.0 °F 80% 29.77 in 10.0 mi ESE 9.2 mph - N/A   Overcast
5:35 AM 28.4 °F 20.4 °F 23.0 °F 80% 29.76 in 10.0 mi ESE 8.1 mph - N/A   Overcast
5:55 AM 30.2 °F 21.9 °F 24.8 °F 80% 29.76 in 10.0 mi ESE 9.2 mph - N/A   Overcast
6:15 AM 30.2 °F 21.3 °F 24.8 °F 80% 29.76 in 7.0 mi ESE 10.4 mph - N/A Snow Light Snow
6:35 AM 30.2 °F 21.9 °F 24.8 °F 80% 29.75 in 4.0 mi ESE 9.2 mph - N/A Snow Light Snow
6:55 AM 30.2 °F 22.6 °F 26.6 °F 86% 29.74 in 3.0 mi East 8.1 mph - N/A Snow Light Snow
7:15 AM 30.2 °F 22.6 °F 26.6 °F 86% 29.73 in 1.2 mi East 8.1 mph - N/A Snow Light Snow
7:35 AM 30.2 °F 21.9 °F 26.6 °F 86% 29.72 in 0.5 mi East 9.2 mph - N/A Snow Light Snow
7:55 AM 30.2 °F 21.9 °F 26.6 °F 86% 29.71 in 0.5 mi ESE 9.2 mph - 0.01 in Snow Snow
8:15 AM 30.2 °F 21.9 °F 26.6 °F 86% 29.70 in 1.0 mi ESE 9.2 mph 16.1 mph N/A Snow Light Snow
8:35 AM 30.2 °F 21.9 °F 26.6 °F 86% 29.70 in 1.5 mi ESE 9.2 mph - N/A Snow Light Snow
8:55 AM 30.2 °F 21.3 °F 26.6 °F 86% 29.69 in 0.8 mi ESE 10.4 mph - N/A Snow Light Snow
9:15 AM 30.2 °F 21.3 °F 28.4 °F 93% 29.69 in 1.0 mi SE 10.4 mph - N/A Snow Light Snow
9:35 AM 30.2 °F 23.4 °F 28.4 °F 93% 29.69 in 1.2 mi SE 6.9 mph - N/A Snow Light Snow
9:55 AM 30.2 °F 21.9 °F 28.4 °F 93% 29.68 in 1.5 mi SE 9.2 mph - N/A Snow Light Snow
10:15 AM 32.0 °F 24.8 °F 28.4 °F 87% 29.67 in 0.8 mi SE 8.1 mph - N/A Snow Light Snow
10:35 AM 32.0 °F 24.8 °F 28.4 °F 87% 29.67 in 1.0 mi SE 8.1 mph - N/A Snow Light Snow
10:55 AM 32.0 °F 24.8 °F 28.4 °F 87% 29.66 in 1.8 mi SSE 8.1 mph - N/A Snow Light Snow
11:15 AM 32.0 °F 26.4 °F 28.4 °F 87% 29.65 in 1.2 mi SSE 5.8 mph - N/A Snow Light Snow
11:35 AM 32.0 °F 25.6 °F 28.4 °F 87% 29.65 in 1.0 mi South 6.9 mph - N/A Snow Light Snow
11:55 AM 32.0 °F 26.4 °F 28.4 °F 87% 29.64 in 1.0 mi South 5.8 mph - 0.01 in Snow Light Snow
12:15 PM 32.0 °F 25.6 °F 28.4 °F 87% 29.63 in 2.0 mi South 6.9 mph - N/A Snow Light Snow
12:35 PM 32.0 °F 25.6 °F 28.4 °F 87% 29.62 in 1.5 mi South 6.9 mph - N/A Snow Light Snow
12:55 PM 32.0 °F 25.6 °F 28.4 °F 87% 29.62 in 0.5 mi South 6.9 mph - 0.01 in Snow Light Snow
1:15 PM 32.0 °F 26.4 °F 30.2 °F 93% 29.60 in 1.0 mi South 5.8 mph - N/A Snow Light Snow
1:35 PM 32.0 °F 24.8 °F 30.2 °F 93% 29.60 in 3.0 mi SSW 8.1 mph - N/A Snow Light Snow
1:55 PM 32.0 °F 23.0 °F 28.4 °F 87% 29.59 in 4.0 mi SW 11.5 mph - N/A   Haze
2:15 PM 32.0 °F 24.8 °F 30.2 °F 93% 29.58 in 0.8 mi SSW 8.1 mph - N/A Snow Light Snow
2:35 PM 33.8 °F 26.4 °F 30.2 °F 87% 29.57 in 1.5 mi SW 9.2 mph - N/A Snow Light Snow
2:55 PM 33.8 °F 25.3 °F 30.2 °F 87% 29.57 in 5.0 mi SW 11.5 mph - N/A Snow Light Snow
3:15 PM 33.8 °F 23.9 °F 30.2 °F 87% 29.57 in 7.0 mi WSW 15.0 mph 21.9 mph N/A   Overcast
3:35 PM 32.0 °F 18.6 °F 28.4 °F 87% 29.57 in 4.0 mi West 25.3 mph 38.0 mph N/A   Haze
3:55 PM 30.2 °F 15.9 °F 24.8 °F 80% 29.59 in 5.0 mi West 26.5 mph 32.2 mph N/A   Haze
4:15 PM 28.4 °F 15.4 °F 23.0 °F 80% 29.60 in 5.0 mi West 19.6 mph 32.2 mph N/A   Haze
4:35 PM 28.4 °F 15.4 °F 23.0 °F 80% 29.61 in 7.0 mi West 19.6 mph 26.5 mph N/A   Overcast
4:55 PM 26.6 °F 11.4 °F 21.2 °F 80% 29.62 in 7.0 mi West 25.3 mph 33.4 mph N/A   Overcast
5:15 PM 26.6 °F 11.1 °F 17.6 °F 69% 29.62 in 5.0 mi West 26.5 mph 33.4 mph N/A   Haze
5:35 PM 26.6 °F 12.0 °F 17.6 °F 69% 29.63 in 7.0 mi West 23.0 mph 31.1 mph N/A   Overcast
5:55 PM 24.8 °F 9.3 °F 17.6 °F 74% 29.64 in 7.0 mi West 24.2 mph 29.9 mph N/A Snow Light Snow
6:15 PM 24.8 °F 10.0 °F 17.6 °F 74% 29.65 in 5.0 mi West 21.9 mph 32.2 mph N/A Snow Light Snow
6:35 PM 23.0 °F 6.6 °F 17.6 °F 80% 29.66 in 3.0 mi West 25.3 mph 29.9 mph N/A Snow Light Snow
6:55 PM 23.0 °F 7.6 °F 17.6 °F 80% 29.67 in 2.5 mi West 21.9 mph 29.9 mph N/A Snow Light Snow
7:15 PM 23.0 °F 6.9 °F 15.8 °F 74% 29.68 in 3.0 mi West 24.2 mph 33.4 mph N/A Snow Light Snow
7:35 PM 21.2 °F 3.5 °F 12.2 °F 68% 29.68 in 5.0 mi West 27.6 mph 36.8 mph N/A Snow Light Snow
7:55 PM 21.2 °F 5.2 °F 12.2 °F 68% 29.70 in 10.0 mi West 21.9 mph 34.5 mph N/A Snow Light Snow
8:15 PM 21.2 °F 4.5 °F 12.2 °F 68% 29.70 in 10.0 mi West 24.2 mph 29.9 mph N/A Snow Light Snow
8:35 PM 21.2 °F 5.6 °F 14.0 °F 74% 29.71 in 10.0 mi West 20.7 mph 25.3 mph N/A Snow Light Snow
8:55 PM 21.2 °F 4.9 °F 14.0 °F 74% 29.71 in 7.0 mi West 23.0 mph 28.8 mph N/A Snow Light Snow
9:15 PM 19.4 °F 1.4 °F 12.2 °F 74% 29.72 in 7.0 mi West 26.5 mph 36.8 mph N/A Snow Light Snow
9:35 PM 19.4 °F 3.2 °F 12.2 °F 74% 29.72 in 10.0 mi West 20.7 mph 32.2 mph N/A Snow Light Snow
9:55 PM 19.4 °F 2.5 °F 10.4 °F 68% 29.73 in 10.0 mi West 23.0 mph 29.9 mph N/A Snow Light Snow
10:15 PM 19.4 °F 2.8 °F 10.4 °F 68% 29.73 in 10.0 mi West 21.9 mph 32.2 mph N/A Snow Light Snow
10:55 PM 19.4 °F 2.8 °F 12.2 °F 74% 29.74 in 5.0 mi West 21.9 mph 31.1 mph N/A Snow Light Snow
11:15 PM 19.4 °F 2.1 °F 12.2 °F 74% 29.74 in 5.0 mi West 24.2 mph 28.8 mph N/A Snow Light Snow
11:35 PM 19.4 °F 2.1 °F 10.4 °F 68% 29.74 in 5.0 mi West 24.2 mph 33.4 mph N/A Snow Light Snow
11:55 PM 17.6 °F 1.7 °F 12.2 °F 79% 29.75 in 7.0 mi West 18.4 mph 28.8 mph N/A Snow Light Snow